Bovington Camp, United Kingdom
Current Conditions -  °F | °C
As of 1:50 PM on Saturday 25 Oct 2014 (Local Time) from EGHH Reporting Station
Broken Clouds Broken Clouds  
Wind Chill: 59°   Ceiling: 4400
Heat Index: 59°   Visibility: 6mi
Dew Point: 46°   Wind: 13mph
Humidity: 63%   Direction: 250°WSW
Pressure: 30.09"   Gusts: NA
Location:  50.7°N, 2.24°W
Report Text: EGHH 251250Z 25011KT 9999 FEW028 BKN044 15/08 Q1019
Loading
Personal Weather Stations






























Interactive Weather Map
Tropical Storm Tracking
New forecast layout! Learn more

10-Day Weather Forecast

Advertisements
Track Severe Weather on mobile